Terminal Aerodrome Forecast
Issued by NWS

Home | Current Version | Previous Version | Text Only | Print | Product List | Glossary On
Versions: 1 2 3 4 5 6 7 8 9 10 11 12 13 14 15 16 17 18 19 20 21 22
704
FTUS43 KPAH 241409 AAA
TAFCGI
TAF AMD
KCGI 241409Z 2414/2512 33008KT P6SM OVC006
     FM241600 35009KT P6SM OVC015
     FM241800 34011KT P6SM OVC030
     FM250100 34005KT P6SM BKN100=

USA.gov is the U.S. government's official web portal to all federal, state and local government web resources and services.